createdAt,value
2022-09-05T00:00:31.153Z,58988.66
2022-09-05T00:01:33.923Z,58964.57
2022-09-05T00:02:37.837Z,58963.57
2022-09-05T00:03:41.498Z,58942.50
2022-09-05T00:04:44.394Z,58821.07
2022-09-05T00:06:01.994Z,58872.25
2022-09-05T00:06:52.303Z,58861.21
2022-09-05T00:07:59.375Z,58914.39
2022-09-05T00:09:00.135Z,58853.18
2022-09-05T00:10:03.270Z,58839.13
2022-09-05T00:11:42.026Z,58802.00
2022-09-05T00:12:12.442Z,58858.20
2022-09-05T00:13:15.273Z,58793.97
2022-09-05T00:14:18.045Z,58763.87
2022-09-05T00:15:22.372Z,58852.18
2022-09-05T00:16:25.477Z,58813.04
2022-09-05T00:17:40.782Z,58822.07
2022-09-05T00:24:17.472Z,58920.42
2022-09-05T00:24:20.387Z,59038.84
2022-09-05T00:24:22.209Z,59028.80
2022-09-05T00:24:26.771Z,59090.02
2022-09-05T00:24:28.937Z,59109.09
2022-09-05T00:24:30.374Z,59154.25
2022-09-05T00:26:06.872Z,59117.12
2022-09-05T00:27:09.952Z,59140.20
2022-09-05T00:28:26.287Z,59217.48
2022-09-05T00:29:34.762Z,59177.33
2022-09-05T00:31:51.611Z,59249.59
2022-09-05T00:31:54.488Z,59413.18
2022-09-05T00:32:30.550Z,59448.31
2022-09-05T00:33:33.340Z,59383.07
2022-09-05T00:34:46.990Z,59353.97
2022-09-05T00:35:40.641Z,59392.11
2022-09-05T00:36:43.500Z,59398.13
2022-09-05T00:37:46.634Z,59278.70
2022-09-05T00:38:49.246Z,59001.70
2022-09-05T00:39:57.786Z,58784.94
2022-09-05T00:40:56.330Z,58484.91
2022-09-05T00:41:59.097Z,58536.08
2022-09-05T00:43:02.282Z,58883.29
2022-09-05T00:44:05.362Z,58755.84
2022-09-05T00:45:14.477Z,58781.93
2022-09-05T00:46:12.897Z,58798.99
2022-09-05T00:47:15.840Z,58967.59
2022-09-05T00:48:18.865Z,59101.06
2022-09-05T00:50:40.425Z,59089.02
2022-09-05T00:51:43.302Z,59227.51
2022-09-05T00:52:51.740Z,59049.87
2022-09-05T00:53:50.493Z,59025.79
2022-09-05T00:54:53.370Z,59034.82
2022-09-05T00:55:58.876Z,58996.69
2022-09-05T00:57:00.755Z,58751.82
2022-09-05T00:58:03.519Z,58706.67
2022-09-05T00:59:06.502Z,58756.84
2022-09-05T01:00:11.677Z,58653.48
2022-09-05T01:01:21.010Z,58675.56
2022-09-05T01:02:18.589Z,58763.87
2022-09-05T01:03:21.593Z,58779.93
2022-09-05T01:04:24.767Z,58777.92
2022-09-05T01:05:27.465Z,58751.82
2022-09-05T01:06:30.513Z,58660.51
2022-09-05T01:07:33.803Z,58442.76
2022-09-05T01:08:38.415Z,58021.35
2022-09-05T01:09:41.603Z,57759.50
2022-09-05T01:10:44.881Z,57752.47
2022-09-05T01:11:47.854Z,57882.89
2022-09-05T01:12:52.956Z,57883.90
2022-09-05T01:13:55.449Z,58019.34
2022-09-05T01:14:58.838Z,58117.67
2022-09-05T01:16:02.010Z,58306.30
2022-09-05T01:17:05.122Z,58524.04
2022-09-05T01:18:08.180Z,58574.21
2022-09-05T01:19:15.788Z,58645.46
2022-09-05T01:20:18.933Z,58601.30
2022-09-05T01:21:20.073Z,58581.24
2022-09-05T01:22:22.953Z,58567.19
2022-09-05T01:23:25.978Z,58541.10
2022-09-05T01:24:28.806Z,58640.44
2022-09-05T01:25:31.986Z,58735.77
2022-09-05T01:26:35.889Z,58877.27
2022-09-05T01:28:37.012Z,58905.36
2022-09-05T01:29:15.202Z,58938.48
2022-09-05T01:29:48.194Z,58769.89
2022-09-05T01:30:51.544Z,58563.18
2022-09-05T01:31:54.556Z,58390.59
2022-09-05T01:32:57.634Z,58293.26
2022-09-05T01:34:02.269Z,58114.66
2022-09-05T01:35:05.336Z,57783.57
2022-09-05T01:36:08.413Z,57543.80
2022-09-05T01:37:32.714Z,57423.42
2022-09-05T01:38:15.903Z,57299.03
2022-09-05T01:40:11.394Z,57089.38
2022-09-05T01:40:23.334Z,56828.59
2022-09-05T01:41:26.249Z,56580.86
2022-09-05T01:42:32.312Z,56344.17
2022-09-05T01:43:35.602Z,55971.11
2022-09-05T01:44:38.783Z,55807.66
2022-09-05T01:45:42.085Z,55743.48
2022-09-05T01:46:47.192Z,55649.23
2022-09-05T01:47:50.474Z,55740.48
2022-09-05T01:48:54.891Z,55737.47
2022-09-05T01:50:00.759Z,55826.71
2022-09-05T01:51:02.793Z,55934.01
2022-09-05T01:52:07.707Z,55961.09
2022-09-05T01:53:10.582Z,56040.30
2022-09-05T01:54:24.517Z,56332.14
2022-09-05T01:55:18.278Z,56327.12
2022-09-05T01:56:21.353Z,56199.76
2022-09-05T01:57:24.340Z,56077.41
2022-09-05T01:58:27.318Z,56025.27
2022-09-05T01:59:32.039Z,56004.21
2022-09-05T02:00:35.312Z,56103.48
2022-09-05T02:01:38.316Z,56246.89
2022-09-05T02:02:41.264Z,56313.08
2022-09-05T02:03:45.478Z,56392.31
2022-09-05T02:04:48.451Z,56407.35
2022-09-05T02:05:51.433Z,56394.31
2022-09-05T02:06:54.202Z,56383.28
2022-09-05T02:07:57.081Z,56304.05
2022-09-05T02:09:00.064Z,56355.20
2022-09-05T02:10:07.265Z,56400.33
2022-09-05T02:11:07.131Z,56393.31
2022-09-05T02:12:09.905Z,56448.47
2022-09-05T02:13:13.291Z,56558.79
2022-09-05T02:14:27.020Z,56619.97
2022-09-05T02:15:20.208Z,56482.57
2022-09-05T02:16:22.985Z,56521.68
2022-09-05T02:17:46.358Z,56596.90
2022-09-05T02:18:30.633Z,56560.80
2022-09-05T02:19:33.303Z,56630.00
2022-09-05T02:20:36.412Z,56544.75
2022-09-05T02:21:56.752Z,56532.71
2022-09-05T02:22:44.078Z,56483.57
2022-09-05T02:23:47.774Z,56520.68
2022-09-05T02:24:51.051Z,56515.67
2022-09-05T02:26:01.490Z,56441.45
2022-09-05T02:27:00.091Z,56273.97
2022-09-05T02:28:05.714Z,56202.77
2022-09-05T02:29:07.982Z,56192.73
2022-09-05T02:30:11.078Z,56198.75
2022-09-05T02:31:19.820Z,56154.63
2022-09-05T02:32:19.266Z,56205.77
2022-09-05T02:33:22.157Z,56290.02
2022-09-05T02:34:25.017Z,56303.05
2022-09-05T02:35:27.994Z,56284.00
2022-09-05T02:36:31.075Z,56207.78
2022-09-05T02:41:29.089Z,56235.86
2022-09-05T02:45:03.549Z,56279.98
2022-09-05T02:45:07.655Z,56240.87
2022-09-05T02:45:07.733Z,56185.71
2022-09-05T02:45:14.494Z,56221.82
2022-09-05T02:45:20.116Z,56190.73
2022-09-05T02:45:24.531Z,56119.53
2022-09-05T02:45:25.421Z,56119.53
2022-09-05T02:46:10.891Z,55907.94
2022-09-05T02:47:13.748Z,55871.84
2022-09-05T02:48:16.517Z,55810.67
2022-09-05T02:51:45.045Z,55774.57
2022-09-05T02:56:02.918Z,55758.53
2022-09-05T02:57:27.800Z,55724.43
2022-09-05T02:57:33.493Z,55810.67
2022-09-05T02:57:35.593Z,55784.60
2022-09-05T02:57:36.181Z,55748.50
2022-09-05T02:57:46.686Z,55695.36
2022-09-05T02:58:06.512Z,55803.65
2022-09-05T02:58:07.638Z,55620.15
2022-09-05T02:59:16.570Z,55486.79
2022-09-05T03:01:25.088Z,55531.91
2022-09-05T03:02:27.941Z,55523.89
2022-09-05T03:03:39.262Z,55594.08
2022-09-05T03:04:46.943Z,55529.91
2022-09-05T03:05:51.576Z,55629.18
2022-09-05T03:06:55.256Z,55679.31
2022-09-05T03:07:58.030Z,55782.59
2022-09-05T03:09:17.329Z,55830.72
2022-09-05T03:10:05.105Z,55858.80
2022-09-05T03:11:20.273Z,55832.73
2022-09-05T03:12:29.096Z,55824.71
2022-09-05T03:13:27.451Z,55828.72
2022-09-05T03:14:37.114Z,55864.82
2022-09-05T03:15:40.066Z,55907.94
2022-09-05T03:16:54.986Z,55872.84
2022-09-05T03:18:20.098Z,55937.02
2022-09-05T03:19:02.821Z,55953.06
2022-09-05T03:20:05.489Z,55932.00
2022-09-05T03:21:14.822Z,55924.98
2022-09-05T03:22:17.685Z,55873.84
2022-09-05T03:23:22.509Z,55972.12
2022-09-05T03:24:25.897Z,56061.37
2022-09-05T03:25:28.971Z,56038.30
2022-09-05T03:26:31.748Z,56021.25
2022-09-05T03:27:35.233Z,56060.36
2022-09-05T03:28:39.144Z,56094.46
2022-09-05T03:29:42.219Z,56139.59
2022-09-05T03:30:45.658Z,56195.75
2022-09-05T03:31:49.088Z,56189.73
2022-09-05T03:32:52.268Z,56221.82
2022-09-05T03:33:55.875Z,56209.79
2022-09-05T03:34:59.153Z,56315.09
2022-09-05T03:36:02.840Z,56379.27
2022-09-05T03:37:06.225Z,56333.14
2022-09-05T03:38:09.408Z,56215.80
2022-09-05T03:39:12.390Z,56099.47
2022-09-05T03:40:16.828Z,56087.44
2022-09-05T03:41:20.186Z,56094.46
2022-09-05T03:42:27.919Z,56148.61
2022-09-05T03:43:29.415Z,56180.70
2022-09-05T03:44:32.698Z,56195.75
2022-09-05T03:45:37.403Z,56296.03
2022-09-05T03:46:41.121Z,56318.09
2022-09-05T03:47:44.698Z,56350.19
2022-09-05T03:48:48.085Z,56310.07
2022-09-05T03:54:12.190Z,56306.06
2022-09-05T03:57:08.214Z,56208.78
2022-09-05T03:57:11.909Z,56237.86
2022-09-05T03:57:16.514Z,56437.44
2022-09-05T03:57:25.709Z,56193.74
2022-09-05T03:57:25.711Z,56291.02
2022-09-05T03:57:28.307Z,56600.92
2022-09-05T03:57:41.757Z,56538.73
2022-09-05T03:58:55.372Z,56681.15
2022-09-05T03:59:34.623Z,56688.17
2022-09-05T04:01:00.988Z,56675.14
2022-09-05T04:04:14.269Z,56618.97
2022-09-05T04:07:12.075Z,56665.11
2022-09-05T04:08:08.950Z,56634.02
2022-09-05T04:08:15.370Z,56676.14
2022-09-05T04:08:18.258Z,56675.14
2022-09-05T04:08:24.412Z,56723.28
2022-09-05T04:08:38.603Z,56651.07
2022-09-05T04:09:49.979Z,56580.86
2022-09-05T04:10:37.157Z,56576.85
2022-09-05T04:11:40.065Z,56618.97
2022-09-05T04:12:49.507Z,56545.75
2022-09-05T04:13:52.575Z,56491.60
2022-09-05T04:14:55.343Z,56510.65
2022-09-05T04:15:58.423Z,56536.73
2022-09-05T04:17:04.133Z,56557.79
2022-09-05T04:18:08.586Z,56620.98
2022-09-05T04:19:14.519Z,56469.53
2022-09-05T04:20:17.404Z,56442.45
2022-09-05T04:21:20.472Z,56450.48
2022-09-05T04:22:30.122Z,56378.27
2022-09-05T04:23:32.980Z,56357.21
2022-09-05T04:24:36.293Z,56350.19
2022-09-05T04:25:40.782Z,56347.18
2022-09-05T04:26:43.549Z,56305.06
2022-09-05T04:27:49.199Z,56359.21
2022-09-05T04:28:53.774Z,56336.14
2022-09-05T04:29:59.958Z,56285.00
2022-09-05T04:31:02.939Z,56184.71
2022-09-05T04:32:17.995Z,56172.68
2022-09-05T04:33:10.530Z,56187.72
2022-09-05T04:34:13.505Z,56249.90
2022-09-05T04:35:16.181Z,56241.87
2022-09-05T04:36:19.055Z,56152.62
2022-09-05T04:37:21.825Z,56174.68
2022-09-05T04:38:25.566Z,56213.80
2022-09-05T04:39:28.950Z,56163.65
2022-09-05T04:40:33.047Z,56068.39
2022-09-05T04:41:39.331Z,56028.27
2022-09-05T04:42:40.913Z,56082.43
2022-09-05T04:43:43.775Z,56051.34
2022-09-05T04:44:46.863Z,56053.34
2022-09-05T04:45:50.135Z,55926.99
2022-09-05T04:46:53.323Z,55953.06
2022-09-05T04:47:56.912Z,55904.93
2022-09-05T04:49:02.054Z,55804.65
2022-09-05T04:50:05.325Z,55769.56
2022-09-05T04:51:12.806Z,55770.56
2022-09-05T04:52:13.326Z,55792.62
2022-09-05T04:53:17.642Z,55832.73
2022-09-05T04:54:20.717Z,55786.60
2022-09-05T04:55:23.702Z,55883.87
2022-09-05T04:56:26.788Z,55949.05
2022-09-05T04:57:29.957Z,55943.04
2022-09-05T04:58:33.766Z,55963.09
2022-09-05T05:03:26.153Z,55975.12
2022-09-05T05:06:02.070Z,56033.29
2022-09-05T05:06:05.028Z,55986.16
2022-09-05T05:06:13.108Z,56006.21
2022-09-05T05:06:15.942Z,55963.09
2022-09-05T05:06:17.757Z,55973.12
2022-09-05T05:06:36.774Z,55852.79
2022-09-05T05:07:11.914Z,55837.75
2022-09-05T05:08:15.208Z,55800.64
2022-09-05T05:09:17.971Z,55748.50
2022-09-05T05:11:11.545Z,55682.32
2022-09-05T05:16:07.645Z,55698.36
2022-09-05T05:17:55.062Z,55783.59
2022-09-05T05:17:57.398Z,55803.65
2022-09-05T05:17:57.583Z,55876.85
2022-09-05T05:18:12.506Z,56026.27
2022-09-05T05:18:12.789Z,55935.01
2022-09-05T05:18:14.993Z,55953.06
2022-09-05T05:19:07.127Z,56040.30
2022-09-05T05:20:42.044Z,56080.42
2022-09-05T05:22:31.881Z,56152.62
2022-09-05T05:23:35.067Z,56147.61
2022-09-05T05:24:38.057Z,56097.47
2022-09-05T05:26:59.764Z,56049.33
2022-09-05T05:28:02.639Z,56047.33
2022-09-05T05:29:06.944Z,56079.42
2022-09-05T05:30:21.905Z,56131.56
2022-09-05T05:31:28.549Z,56108.50
2022-09-05T05:32:46.053Z,56082.43
2022-09-05T05:33:36.571Z,56031.28
2022-09-05T05:34:45.328Z,56079.42
2022-09-05T05:35:48.790Z,56141.59
2022-09-05T05:37:07.425Z,56189.73
2022-09-05T05:38:10.320Z,56221.82
2022-09-05T05:39:13.581Z,56268.95
2022-09-05T05:40:19.527Z,56255.92
2022-09-05T05:41:34.602Z,56233.85
2022-09-05T05:42:40.753Z,56126.55
2022-09-05T05:43:46.462Z,56006.21
2022-09-05T05:44:48.221Z,56009.22
2022-09-05T05:45:51.966Z,56019.25
2022-09-05T05:46:54.791Z,56053.34
2022-09-05T05:47:57.887Z,56125.55
2022-09-05T05:49:00.845Z,56157.64
2022-09-05T05:50:03.930Z,56262.94
2022-09-05T05:51:07.141Z,56328.12
2022-09-05T05:52:09.880Z,56372.25
2022-09-05T05:53:12.763Z,56397.32
2022-09-05T05:54:17.060Z,56392.31
2022-09-05T05:55:52.487Z,56327.12
2022-09-05T05:56:24.146Z,56273.97
2022-09-05T05:57:26.927Z,56183.71
2022-09-05T05:58:32.907Z,56150.62
2022-09-05T05:59:34.205Z,56127.55
2022-09-05T06:00:37.083Z,56151.62
2022-09-05T06:01:39.816Z,56043.31
2022-09-05T06:02:42.730Z,55988.16
2022-09-05T06:03:45.800Z,56003.20
2022-09-05T06:04:48.879Z,56007.21
2022-09-05T06:05:51.771Z,56089.45
2022-09-05T06:06:55.041Z,56081.42
2022-09-05T06:10:06.482Z,56115.52
2022-09-05T06:12:05.610Z,56124.54
2022-09-05T06:14:53.093Z,56143.60
2022-09-05T06:14:57.129Z,56232.85
2022-09-05T06:15:01.329Z,56238.87
2022-09-05T06:15:03.669Z,56184.71
2022-09-05T06:15:04.152Z,56213.80
2022-09-05T06:15:29.042Z,56231.85
2022-09-05T06:16:32.227Z,56109.50
2022-09-05T06:17:34.944Z,56079.42
2022-09-05T06:18:38.132Z,56029.27
2022-09-05T06:19:58.295Z,56016.24
2022-09-05T06:22:09.577Z,55894.90
2022-09-05T06:22:11.422Z,55984.15
2022-09-05T06:23:02.630Z,55943.04
2022-09-05T06:24:05.510Z,55894.90
2022-09-05T06:25:16.673Z,55939.02
2022-09-05T06:26:12.490Z,55961.09
2022-09-05T06:27:15.360Z,55951.06
2022-09-05T06:28:20.056Z,56002.20
2022-09-05T06:29:34.306Z,56097.47
2022-09-05T06:30:32.688Z,56090.45
2022-09-05T06:32:58.055Z,56212.79
2022-09-05T06:34:29.076Z,56229.84
2022-09-05T06:35:23.407Z,56232.85
2022-09-05T06:36:29.352Z,56233.85
2022-09-05T06:37:32.439Z,56169.67
2022-09-05T06:38:35.104Z,56153.62
2022-09-05T06:39:37.821Z,56143.60
2022-09-05T06:40:42.083Z,56107.50
2022-09-05T06:41:45.284Z,56080.42
2022-09-05T06:42:48.445Z,56131.56
2022-09-05T06:43:51.423Z,56147.61
2022-09-05T06:44:56.169Z,56227.84
2022-09-05T06:46:00.997Z,56280.99
2022-09-05T06:47:33.486Z,56403.34
2022-09-05T06:48:08.960Z,56447.47
2022-09-05T06:49:32.392Z,56480.57
2022-09-05T06:50:26.917Z,56485.58
2022-09-05T06:51:20.756Z,56575.84
2022-09-05T06:52:29.404Z,56592.89
2022-09-05T06:53:30.035Z,56599.91
2022-09-05T06:54:32.966Z,56554.78
2022-09-05T06:55:37.691Z,56587.88
2022-09-05T06:56:40.768Z,56595.90
2022-09-05T06:57:44.527Z,56647.05
2022-09-05T06:58:48.064Z,56713.25
2022-09-05T06:59:50.932Z,56739.33
2022-09-05T07:00:53.955Z,56843.64
2022-09-05T07:02:01.241Z,56886.77
2022-09-05T07:03:01.882Z,56934.91
2022-09-05T07:04:27.393Z,56927.89
2022-09-05T07:05:37.797Z,56986.07
2022-09-05T07:06:19.774Z,56984.06
2022-09-05T07:07:18.414Z,57049.26
2022-09-05T07:08:36.297Z,56861.69
2022-09-05T07:09:28.706Z,56893.79
2022-09-05T07:10:45.470Z,56907.83
2022-09-05T07:11:34.630Z,56893.79
2022-09-05T07:12:37.501Z,56887.77
2022-09-05T07:13:44.516Z,56918.86
2022-09-05T07:14:44.910Z,56890.78
2022-09-05T07:15:48.053Z,56949.96
2022-09-05T07:16:50.793Z,56953.97
2022-09-05T07:18:09.996Z,56939.93
2022-09-05T07:19:02.620Z,57001.11
2022-09-05T07:20:03.051Z,57058.29
2022-09-05T07:21:17.738Z,57107.44
2022-09-05T07:22:25.793Z,57157.59
2022-09-05T07:23:49.333Z,57241.85
2022-09-05T07:24:54.068Z,57350.19
2022-09-05T07:25:26.374Z,57385.30
2022-09-05T07:26:51.419Z,57448.50
2022-09-05T07:27:32.797Z,57457.53
2022-09-05T07:28:37.211Z,57482.61
2022-09-05T07:29:40.296Z,57461.54
2022-09-05T07:30:45.222Z,57412.39
2022-09-05T07:31:48.263Z,57456.53
2022-09-05T07:32:51.271Z,57534.77
2022-09-05T07:33:54.448Z,57609.01
2022-09-05T07:34:57.528Z,57645.12
2022-09-05T07:36:00.728Z,57601.99
2022-09-05T07:37:15.511Z,57664.19
2022-09-05T07:38:08.103Z,57690.27
2022-09-05T07:39:28.358Z,57714.35
2022-09-05T07:40:26.316Z,57733.41
2022-09-05T07:41:19.807Z,57681.24
2022-09-05T07:42:22.572Z,57648.14
2022-09-05T07:43:25.247Z,57583.93
2022-09-05T07:44:27.906Z,57553.84
2022-09-05T07:45:30.717Z,57556.84
2022-09-05T07:46:33.786Z,57522.73
2022-09-05T07:47:36.645Z,57463.55
2022-09-05T07:48:39.305Z,57433.45
2022-09-05T07:49:56.590Z,57354.20
2022-09-05T07:56:34.715Z,57299.03
2022-09-05T07:56:47.726Z,57299.03
2022-09-05T07:56:51.145Z,57336.15
2022-09-05T07:57:04.124Z,57382.29
2022-09-05T07:57:05.169Z,57374.27
2022-09-05T07:57:06.381Z,57375.27
2022-09-05T07:57:31.744Z,57378.28
2022-09-05T07:58:18.797Z,57353.20
2022-09-05T07:59:27.406Z,57372.26
2022-09-05T08:01:49.446Z,57245.87
2022-09-05T08:04:10.759Z,57184.68
2022-09-05T08:05:13.483Z,57199.72
2022-09-05T08:06:48.020Z,57223.80
2022-09-05T08:07:49.662Z,57254.89
2022-09-05T08:08:26.450Z,57224.80
2022-09-05T08:10:06.904Z,57223.80
2022-09-05T08:11:23.491Z,57158.60
2022-09-05T08:11:50.024Z,57132.52
2022-09-05T08:13:23.773Z,57044.25
2022-09-05T08:14:38.502Z,56957.98
2022-09-05T08:15:14.135Z,56882.75
2022-09-05T08:16:14.225Z,56859.69
2022-09-05T08:17:17.606Z,56859.69
2022-09-05T08:18:20.375Z,56786.47
2022-09-05T08:19:23.147Z,56764.40
2022-09-05T08:20:25.920Z,56716.26
2022-09-05T08:21:28.693Z,56671.12
2022-09-05T08:22:31.357Z,56604.93
2022-09-05T08:23:34.235Z,56577.85
2022-09-05T08:24:37.324Z,56528.70
2022-09-05T08:25:57.252Z,56529.71
2022-09-05T08:26:47.035Z,56477.55
2022-09-05T08:27:49.528Z,56482.57
2022-09-05T08:28:52.321Z,56471.54
2022-09-05T08:30:22.597Z,56489.59
2022-09-05T08:31:00.074Z,56432.42
2022-09-05T08:32:03.069Z,56498.62
2022-09-05T08:33:10.545Z,56518.68
2022-09-05T08:34:10.969Z,56472.54
2022-09-05T08:35:13.739Z,56534.72
2022-09-05T08:36:16.613Z,56598.91
2022-09-05T08:37:20.883Z,56598.91
2022-09-05T08:38:23.953Z,56624.99
2022-09-05T08:39:26.930Z,56708.23
2022-09-05T08:40:29.773Z,56731.30
2022-09-05T08:41:51.021Z,56803.52
2022-09-05T08:42:37.689Z,56837.62
2022-09-05T08:45:50.659Z,56999.11
2022-09-05T08:46:42.972Z,57163.61
2022-09-05T08:46:44.799Z,57091.39
2022-09-05T08:46:54.858Z,57207.75
2022-09-05T08:47:58.129Z,57159.60
2022-09-05T08:49:09.731Z,57119.48
2022-09-05T08:50:05.262Z,57008.14
2022-09-05T08:51:09.579Z,57024.18
2022-09-05T08:52:12.336Z,57000.11
2022-09-05T08:53:32.941Z,56931.91
2022-09-05T08:54:19.720Z,56910.84
2022-09-05T08:55:22.399Z,56867.71
2022-09-05T08:56:25.464Z,56907.83
2022-09-05T08:57:28.241Z,56898.80
2022-09-05T08:58:32.665Z,56970.02
2022-09-05T08:59:35.418Z,57024.18
2022-09-05T09:00:38.372Z,57063.30
2022-09-05T09:02:13.752Z,57109.45
2022-09-05T09:02:48.417Z,57151.57
2022-09-05T09:03:51.821Z,57262.92
2022-09-05T09:05:01.297Z,57325.11
2022-09-05T09:06:14.023Z,57301.04
2022-09-05T09:07:47.184Z,57207.75
2022-09-05T09:08:07.094Z,57205.74
2022-09-05T09:09:10.009Z,57134.52
2022-09-05T09:10:12.898Z,57162.61
2022-09-05T09:11:17.299Z,57201.73
2022-09-05T09:12:19.960Z,57153.58
2022-09-05T09:13:22.632Z,57197.71
2022-09-05T09:14:31.189Z,57226.81
2022-09-05T09:15:30.016Z,57230.82
2022-09-05T09:16:32.514Z,57279.97
2022-09-05T09:17:35.459Z,57294.02
2022-09-05T09:18:38.136Z,57282.98
2022-09-05T09:19:40.897Z,57337.15
2022-09-05T09:20:45.337Z,57394.33
2022-09-05T09:21:48.289Z,57462.54
2022-09-05T09:22:51.690Z,57539.79
2022-09-05T09:23:54.852Z,57619.04
2022-09-05T09:25:15.890Z,57648.14
2022-09-05T09:26:02.450Z,57687.26
2022-09-05T09:27:05.521Z,57691.27
2022-09-05T09:28:48.343Z,57670.21
2022-09-05T09:29:13.321Z,57701.30
2022-09-05T09:30:16.091Z,57707.32
2022-09-05T09:31:19.268Z,57708.33
2022-09-05T09:32:22.149Z,57837.75
2022-09-05T09:33:27.278Z,57948.11
2022-09-05T09:34:29.946Z,58025.36
2022-09-05T09:35:32.620Z,58155.79
2022-09-05T09:36:35.599Z,58360.48
2022-09-05T09:37:50.496Z,58580.23
2022-09-05T09:38:43.707Z,58819.06
2022-09-05T09:39:46.413Z,58964.57
2022-09-05T09:41:00.715Z,59081.99
2022-09-05T09:41:53.860Z,59201.42
2022-09-05T09:42:57.038Z,59344.94
2022-09-05T09:44:00.115Z,59453.33
2022-09-05T09:45:22.959Z,59538.64
2022-09-05T09:46:07.675Z,59535.63
2022-09-05T09:47:10.686Z,59584.82
2022-09-05T09:48:13.667Z,59596.86
2022-09-05T09:49:23.379Z,59567.75
2022-09-05T09:50:21.253Z,59555.71
2022-09-05T09:51:24.030Z,59510.54
2022-09-05T09:52:26.800Z,59508.54
2022-09-05T09:53:29.673Z,59469.39
2022-09-05T09:54:34.090Z,59468.39
2022-09-05T09:55:38.716Z,59497.49
2022-09-05T09:56:41.777Z,59458.35
2022-09-05T09:57:44.659Z,59476.42
2022-09-05T09:58:47.941Z,59492.48
2022-09-05T09:59:54.281Z,59508.54
2022-09-05T10:00:55.740Z,59437.27
2022-09-05T10:02:23.996Z,59475.41
2022-09-05T10:05:58.930Z,59510.54
2022-09-05T10:10:39.741Z,59450.32
2022-09-05T10:10:40.108Z,59466.38
2022-09-05T10:10:45.620Z,59381.07
2022-09-05T10:10:50.235Z,59410.17
2022-09-05T10:10:55.368Z,59262.64
2022-09-05T10:10:56.273Z,59427.23
2022-09-05T10:11:00.573Z,59221.49
2022-09-05T10:11:56.814Z,59166.29
2022-09-05T10:12:44.151Z,59168.30
2022-09-05T10:13:50.100Z,59176.33
2022-09-05T10:14:53.083Z,59192.39
2022-09-05T10:15:56.285Z,59184.36
2022-09-05T10:17:06.705Z,59195.39
2022-09-05T10:18:10.910Z,59133.17
2022-09-05T10:19:16.923Z,59092.03
2022-09-05T10:21:38.593Z,59033.82
2022-09-05T10:22:41.768Z,59033.82
2022-09-05T10:23:44.851Z,59020.77
2022-09-05T10:24:47.826Z,58976.62
2022-09-05T10:25:50.497Z,59002.71
2022-09-05T10:26:53.365Z,59006.72
2022-09-05T10:27:56.451Z,58977.62
2022-09-05T10:28:59.449Z,58932.46
2022-09-05T10:30:03.573Z,58974.61
2022-09-05T10:34:35.702Z,58981.63
2022-09-05T10:35:05.001Z,58991.67
2022-09-05T10:35:05.994Z,58971.60
2022-09-05T10:35:14.791Z,58976.62
2022-09-05T10:36:42.685Z,59080.98
2022-09-05T10:37:48.448Z,59142.20
2022-09-05T10:38:51.104Z,59098.05
2022-09-05T10:40:00.373Z,59068.94
2022-09-05T10:41:19.949Z,59089.02
2022-09-05T10:42:07.403Z,59155.25
2022-09-05T10:43:10.074Z,59173.32
2022-09-05T10:44:15.718Z,59145.21
2022-09-05T10:45:18.691Z,59174.32
2022-09-05T10:46:49.466Z,59138.19
2022-09-05T10:47:30.237Z,59133.17
2022-09-05T10:48:32.947Z,59178.34
2022-09-05T10:49:35.832Z,59188.37
2022-09-05T10:50:39.004Z,59229.52
2022-09-05T10:51:43.519Z,59377.05
2022-09-05T10:52:48.029Z,59437.27
2022-09-05T10:53:50.799Z,59592.84
2022-09-05T10:54:57.557Z,59693.21
2022-09-05T10:55:57.981Z,59819.69
2022-09-05T10:57:00.761Z,60081.68
2022-09-05T10:58:03.637Z,60245.31
2022-09-05T11:02:16.401Z,60371.80
2022-09-05T11:02:20.562Z,60526.40
2022-09-05T11:02:22.183Z,60667.96
2022-09-05T11:02:34.901Z,60847.68
2022-09-05T11:03:23.974Z,61024.39
2022-09-05T11:04:26.614Z,61203.12
2022-09-05T11:05:30.499Z,61354.74
2022-09-05T11:06:33.488Z,61501.35
2022-09-05T11:07:36.270Z,61609.80
2022-09-05T11:08:39.451Z,61726.30
2022-09-05T11:09:42.619Z,61848.82
2022-09-05T11:10:45.812Z,61970.34
2022-09-05T11:11:49.807Z,61988.41
2022-09-05T11:12:57.298Z,62028.59
2022-09-05T11:13:57.718Z,62124.00
2022-09-05T11:15:00.578Z,62187.27
2022-09-05T11:16:06.101Z,62182.25
2022-09-05T11:17:08.378Z,62193.30
2022-09-05T11:18:11.458Z,62254.56
2022-09-05T11:19:14.746Z,62245.52
2022-09-05T11:20:22.314Z,62289.71
2022-09-05T11:21:22.229Z,62281.68
2022-09-05T11:22:25.208Z,62291.73
2022-09-05T11:23:28.086Z,62309.80
2022-09-05T11:24:30.851Z,62221.42
2022-09-05T11:25:36.980Z,62164.17
2022-09-05T11:26:38.143Z,62103.91
2022-09-05T11:27:41.117Z,62070.77
2022-09-05T11:28:59.972Z,62010.50
2022-09-05T11:29:48.501Z,61979.37
2022-09-05T11:30:51.529Z,61938.20
2022-09-05T11:32:22.450Z,61952.26
2022-09-05T11:36:23.642Z,61875.93
2022-09-05T11:39:57.202Z,61907.06
2022-09-05T11:39:57.508Z,61862.87
2022-09-05T11:39:59.595Z,61856.85
2022-09-05T11:39:59.919Z,61832.75
2022-09-05T11:40:07.229Z,61987.41
2022-09-05T11:40:10.151Z,61875.93
2022-09-05T11:40:41.889Z,62013.52
2022-09-05T11:41:34.561Z,62094.87
2022-09-05T11:42:37.232Z,62134.04
2022-09-05T11:43:40.319Z,62203.34
2022-09-05T11:44:46.159Z,62286.70
2022-09-05T11:45:51.628Z,62314.83
2022-09-05T11:46:57.443Z,62377.10
2022-09-05T11:48:01.849Z,62448.41
2022-09-05T11:49:16.598Z,62531.78
2022-09-05T11:50:31.363Z,62568.95
2022-09-05T11:51:34.487Z,62688.48
2022-09-05T11:52:37.239Z,62753.77
2022-09-05T11:53:40.179Z,62806.01
2022-09-05T11:56:02.416Z,62910.48
2022-09-05T11:57:32.857Z,63026.00
2022-09-05T11:58:44.273Z,63016.96
2022-09-05T11:59:14.620Z,63032.03
2022-09-05T12:00:32.674Z,63058.15
2022-09-05T12:01:41.932Z,63078.24
2022-09-05T12:02:38.578Z,63105.36
2022-09-05T12:03:59.050Z,63139.52
2022-09-05T12:04:46.554Z,63210.85
2022-09-05T12:05:58.990Z,63149.57
2022-09-05T12:06:55.228Z,63197.79
2022-09-05T12:07:58.206Z,63199.80
2022-09-05T12:09:00.978Z,63203.82
2022-09-05T12:10:03.671Z,63185.73
2022-09-05T12:11:06.730Z,63192.77
2022-09-05T12:12:19.376Z,63254.05
2022-09-05T12:13:14.625Z,63229.94
2022-09-05T12:14:21.604Z,63234.96
2022-09-05T12:15:24.083Z,63263.09
2022-09-05T12:16:27.299Z,63259.07
2022-09-05T12:17:35.532Z,63262.08
2022-09-05T12:18:34.336Z,63260.07
2022-09-05T12:19:37.607Z,63293.23
2022-09-05T12:20:43.388Z,63299.25
2022-09-05T12:21:44.796Z,63348.48
2022-09-05T12:22:47.775Z,63326.38
2022-09-05T12:24:11.592Z,63339.44
2022-09-05T12:25:25.733Z,63352.50
2022-09-05T12:27:38.396Z,63415.80
2022-09-05T12:27:42.121Z,63357.52
2022-09-05T12:28:28.647Z,63381.64
2022-09-05T12:29:32.745Z,63402.73
2022-09-05T12:30:21.002Z,63423.83
2022-09-05T12:33:33.931Z,63416.80
2022-09-05T12:34:05.298Z,63408.76
2022-09-05T12:36:03.592Z,63444.93
2022-09-05T12:36:06.664Z,63423.83
2022-09-05T12:36:13.161Z,63456.99
2022-09-05T12:40:15.765Z,63431.87
2022-09-05T12:40:54.589Z,63432.87
2022-09-05T12:40:57.773Z,63471.05
2022-09-05T12:41:32.461Z,63446.94
2022-09-05T12:41:43.499Z,63462.01
2022-09-05T12:44:40.074Z,63478.09
2022-09-05T12:44:42.229Z,63536.36
2022-09-05T12:45:37.309Z,63501.20
2022-09-05T12:46:52.257Z,63498.18
2022-09-05T12:47:54.935Z,63470.05